sensor_id;sensor_type;location;lat;lon;timestamp;temperature;humidity
56240;DHT22;42154;51.992;5.896;2022-10-16T00:01:24;12.50;99.90
56240;DHT22;42154;51.992;5.896;2022-10-16T00:03:50;12.50;99.90
56240;DHT22;42154;51.992;5.896;2022-10-16T00:06:18;12.40;99.90
56240;DHT22;42154;51.992;5.896;2022-10-16T00:08:44;12.30;99.90
56240;DHT22;42154;51.992;5.896;2022-10-16T00:11:13;12.30;99.90
56240;DHT22;42154;51.992;5.896;2022-10-16T00:13:40;12.30;99.90
56240;DHT22;42154;51.992;5.896;2022-10-16T00:16:06;12.20;99.90
56240;DHT22;42154;51.992;5.896;2022-10-16T00:18:33;12.20;99.90
56240;DHT22;42154;51.992;5.896;2022-10-16T00:21:10;12.20;99.90
56240;DHT22;42154;51.992;5.896;2022-10-16T00:23:36;12.10;99.90
56240;DHT22;42154;51.992;5.896;2022-10-16T00:26:07;12.10;99.90
56240;DHT22;42154;51.992;5.896;2022-10-16T00:28:34;12.10;99.90
56240;DHT22;42154;51.992;5.896;2022-10-16T00:31:07;12.10;99.90
56240;DHT22;42154;51.992;5.896;2022-10-16T00:33:34;12.10;99.90
56240;DHT22;42154;51.992;5.896;2022-10-16T00:36:01;12.10;99.90
56240;DHT22;42154;51.992;5.896;2022-10-16T00:38:27;12.10;99.90
56240;DHT22;42154;51.992;5.896;2022-10-16T00:40:53;12.10;99.90
56240;DHT22;42154;51.992;5.896;2022-10-16T00:46:25;12.00;99.90
56240;DHT22;42154;51.992;5.896;2022-10-16T00:49:04;12.00;99.90
56240;DHT22;42154;51.992;5.896;2022-10-16T00:51:36;12.00;99.90
56240;DHT22;42154;51.992;5.896;2022-10-16T00:54:10;11.90;99.90
56240;DHT22;42154;51.992;5.896;2022-10-16T00:56:36;11.90;99.90
56240;DHT22;42154;51.992;5.896;2022-10-16T00:59:06;11.90;99.90
56240;DHT22;42154;51.992;5.896;2022-10-16T01:01:33;11.80;99.90
56240;DHT22;42154;51.992;5.896;2022-10-16T01:03:58;11.80;99.90
56240;DHT22;42154;51.992;5.896;2022-10-16T01:12:41;11.80;99.90
56240;DHT22;42154;51.992;5.896;2022-10-16T01:15:17;11.80;99.90
56240;DHT22;42154;51.992;5.896;2022-10-16T01:20:54;12.00;99.90
56240;DHT22;42154;51.992;5.896;2022-10-16T01:23:45;12.10;99.90
56240;DHT22;42154;51.992;5.896;2022-10-16T01:29:15;12.10;99.90
56240;DHT22;42154;51.992;5.896;2022-10-16T01:31:46;12.20;99.90
56240;DHT22;42154;51.992;5.896;2022-10-16T01:34:19;12.20;99.90
56240;DHT22;42154;51.992;5.896;2022-10-16T01:36:52;12.20;99.90
56240;DHT22;42154;51.992;5.896;2022-10-16T01:39:22;12.30;99.90
56240;DHT22;42154;51.992;5.896;2022-10-16T01:41:56;12.30;99.90
56240;DHT22;42154;51.992;5.896;2022-10-16T01:44:30;12.30;99.90
56240;DHT22;42154;51.992;5.896;2022-10-16T01:46:56;12.40;99.90
56240;DHT22;42154;51.992;5.896;2022-10-16T01:49:25;12.40;99.90
56240;DHT22;42154;51.992;5.896;2022-10-16T01:51:54;12.40;99.90
56240;DHT22;42154;51.992;5.896;2022-10-16T01:54:23;12.40;99.90
56240;DHT22;42154;51.992;5.896;2022-10-16T01:56:50;12.40;99.90
56240;DHT22;42154;51.992;5.896;2022-10-16T01:59:19;12.50;99.90
56240;DHT22;42154;51.992;5.896;2022-10-16T02:01:52;12.60;99.90
56240;DHT22;42154;51.992;5.896;2022-10-16T02:04:36;12.60;99.90
56240;DHT22;42154;51.992;5.896;2022-10-16T02:07:03;12.60;99.90
56240;DHT22;42154;51.992;5.896;2022-10-16T02:09:30;12.60;99.90
56240;DHT22;42154;51.992;5.896;2022-10-16T02:11:59;12.60;99.90
56240;DHT22;42154;51.992;5.896;2022-10-16T02:14:29;12.50;99.90
56240;DHT22;42154;51.992;5.896;2022-10-16T02:16:55;12.60;99.90
56240;DHT22;42154;51.992;5.896;2022-10-16T02:19:21;12.60;99.90
56240;DHT22;42154;51.992;5.896;2022-10-16T02:22:00;12.60;99.90
56240;DHT22;42154;51.992;5.896;2022-10-16T02:29:26;12.60;99.90
56240;DHT22;42154;51.992;5.896;2022-10-16T02:31:59;12.70;99.90
56240;DHT22;42154;51.992;5.896;2022-10-16T02:34:26;12.60;99.90
56240;DHT22;42154;51.992;5.896;2022-10-16T02:36:54;12.60;99.90
56240;DHT22;42154;51.992;5.896;2022-10-16T02:39:21;12.60;99.90
56240;DHT22;42154;51.992;5.896;2022-10-16T02:41:47;12.60;99.90
56240;DHT22;42154;51.992;5.896;2022-10-16T02:44:13;12.60;99.90
56240;DHT22;42154;51.992;5.896;2022-10-16T02:46:39;12.60;99.90
56240;DHT22;42154;51.992;5.896;2022-10-16T02:49:05;12.50;99.90
56240;DHT22;42154;51.992;5.896;2022-10-16T02:51:30;12.50;99.90
56240;DHT22;42154;51.992;5.896;2022-10-16T02:53:56;12.60;99.90
56240;DHT22;42154;51.992;5.896;2022-10-16T02:56:22;12.50;99.90
56240;DHT22;42154;51.992;5.896;2022-10-16T02:58:47;12.50;99.90
56240;DHT22;42154;51.992;5.896;2022-10-16T03:01:14;12.50;99.90
56240;DHT22;42154;51.992;5.896;2022-10-16T03:03:42;12.50;99.90
56240;DHT22;42154;51.992;5.896;2022-10-16T03:06:08;12.50;99.90
56240;DHT22;42154;51.992;5.896;2022-10-16T03:08:34;12.50;99.90
56240;DHT22;42154;51.992;5.896;2022-10-16T03:10:59;12.50;99.90
56240;DHT22;42154;51.992;5.896;2022-10-16T03:13:27;12.60;99.90
56240;DHT22;42154;51.992;5.896;2022-10-16T03:15:53;12.60;99.90
56240;DHT22;42154;51.992;5.896;2022-10-16T03:18:19;12.70;99.90
56240;DHT22;42154;51.992;5.896;2022-10-16T03:20:45;12.70;99.90
56240;DHT22;42154;51.992;5.896;2022-10-16T03:23:10;12.70;99.90
56240;DHT22;42154;51.992;5.896;2022-10-16T03:25:36;12.70;99.90
56240;DHT22;42154;51.992;5.896;2022-10-16T03:28:02;12.60;99.90
56240;DHT22;42154;51.992;5.896;2022-10-16T03:30:28;12.60;99.90
56240;DHT22;42154;51.992;5.896;2022-10-16T03:32:54;12.60;99.90
56240;DHT22;42154;51.992;5.896;2022-10-16T03:35:21;12.60;99.90
56240;DHT22;42154;51.992;5.896;2022-10-16T03:37:47;12.60;99.90
56240;DHT22;42154;51.992;5.896;2022-10-16T03:40:13;12.60;99.90
56240;DHT22;42154;51.992;5.896;2022-10-16T03:42:39;12.60;99.90
56240;DHT22;42154;51.992;5.896;2022-10-16T03:45:05;12.60;99.90
56240;DHT22;42154;51.992;5.896;2022-10-16T03:47:31;12.50;99.90
56240;DHT22;42154;51.992;5.896;2022-10-16T03:49:59;12.50;99.90
56240;DHT22;42154;51.992;5.896;2022-10-16T03:52:25;12.50;99.90
56240;DHT22;42154;51.992;5.896;2022-10-16T03:54:51;12.60;99.90
56240;DHT22;42154;51.992;5.896;2022-10-16T03:57:17;12.60;99.90
56240;DHT22;42154;51.992;5.896;2022-10-16T03:59:43;12.60;99.90
56240;DHT22;42154;51.992;5.896;2022-10-16T04:02:09;12.60;99.90
56240;DHT22;42154;51.992;5.896;2022-10-16T04:04:35;12.60;99.90
56240;DHT22;42154;51.992;5.896;2022-10-16T04:07:01;12.60;99.90
56240;DHT22;42154;51.992;5.896;2022-10-16T04:09:27;12.60;99.90
56240;DHT22;42154;51.992;5.896;2022-10-16T04:11:53;12.60;99.90
56240;DHT22;42154;51.992;5.896;2022-10-16T04:14:18;12.60;99.90
56240;DHT22;42154;51.992;5.896;2022-10-16T04:16:44;12.50;99.90
56240;DHT22;42154;51.992;5.896;2022-10-16T04:19:10;12.60;99.90
56240;DHT22;42154;51.992;5.896;2022-10-16T04:21:36;12.60;99.90
56240;DHT22;42154;51.992;5.896;2022-10-16T04:24:02;12.60;99.90
56240;DHT22;42154;51.992;5.896;2022-10-16T04:26:28;12.70;99.90
56240;DHT22;42154;51.992;5.896;2022-10-16T04:28:54;12.70;99.90
56240;DHT22;42154;51.992;5.896;2022-10-16T04:31:20;12.70;99.90
56240;DHT22;42154;51.992;5.896;2022-10-16T04:33:46;12.80;99.90
56240;DHT22;42154;51.992;5.896;2022-10-16T04:36:12;12.80;99.90
56240;DHT22;42154;51.992;5.896;2022-10-16T04:38:38;12.90;99.90
56240;DHT22;42154;51.992;5.896;2022-10-16T04:41:05;12.90;99.90
56240;DHT22;42154;51.992;5.896;2022-10-16T04:43:31;12.90;99.90
56240;DHT22;42154;51.992;5.896;2022-10-16T04:45:57;12.80;99.90
56240;DHT22;42154;51.992;5.896;2022-10-16T04:48:23;12.80;99.90
56240;DHT22;42154;51.992;5.896;2022-10-16T04:50:48;12.80;99.90
56240;DHT22;42154;51.992;5.896;2022-10-16T04:53:14;12.80;99.90
56240;DHT22;42154;51.992;5.896;2022-10-16T04:55:41;12.80;99.90
56240;DHT22;42154;51.992;5.896;2022-10-16T04:58:07;12.70;99.90
56240;DHT22;42154;51.992;5.896;2022-10-16T05:00:34;12.70;99.90
56240;DHT22;42154;51.992;5.896;2022-10-16T05:03:00;12.70;99.90
56240;DHT22;42154;51.992;5.896;2022-10-16T05:05:27;12.70;99.90
56240;DHT22;42154;51.992;5.896;2022-10-16T05:07:53;12.70;99.90
56240;DHT22;42154;51.992;5.896;2022-10-16T05:10:19;12.70;99.90
56240;DHT22;42154;51.992;5.896;2022-10-16T05:12:46;12.70;99.90
56240;DHT22;42154;51.992;5.896;2022-10-16T05:15:12;12.70;99.90
56240;DHT22;42154;51.992;5.896;2022-10-16T05:17:38;12.70;99.90
56240;DHT22;42154;51.992;5.896;2022-10-16T05:20:04;12.60;99.90
56240;DHT22;42154;51.992;5.896;2022-10-16T05:22:30;12.60;99.90
56240;DHT22;42154;51.992;5.896;2022-10-16T05:24:56;12.60;99.90
56240;DHT22;42154;51.992;5.896;2022-10-16T05:27:22;12.60;99.90
56240;DHT22;42154;51.992;5.896;2022-10-16T05:29:48;12.50;99.90
56240;DHT22;42154;51.992;5.896;2022-10-16T05:32:16;12.50;99.90
56240;DHT22;42154;51.992;5.896;2022-10-16T05:34:42;12.50;99.90
56240;DHT22;42154;51.992;5.896;2022-10-16T05:37:08;12.40;99.90
56240;DHT22;42154;51.992;5.896;2022-10-16T05:39:33;12.50;99.90
56240;DHT22;42154;51.992;5.896;2022-10-16T05:41:59;12.40;99.90
56240;DHT22;42154;51.992;5.896;2022-10-16T05:44:25;12.40;99.90
56240;DHT22;42154;51.992;5.896;2022-10-16T05:46:51;12.40;99.90
56240;DHT22;42154;51.992;5.896;2022-10-16T05:49:17;12.30;99.90
56240;DHT22;42154;51.992;5.896;2022-10-16T05:51:42;12.30;99.90
56240;DHT22;42154;51.992;5.896;2022-10-16T05:54:08;12.30;99.90
56240;DHT22;42154;51.992;5.896;2022-10-16T05:56:34;12.30;99.90
56240;DHT22;42154;51.992;5.896;2022-10-16T05:59:00;12.30;99.90
56240;DHT22;42154;51.992;5.896;2022-10-16T06:01:26;12.20;99.90
56240;DHT22;42154;51.992;5.896;2022-10-16T06:03:52;12.30;99.90
56240;DHT22;42154;51.992;5.896;2022-10-16T06:06:20;12.20;99.90
56240;DHT22;42154;51.992;5.896;2022-10-16T06:08:47;12.20;99.90
56240;DHT22;42154;51.992;5.896;2022-10-16T06:11:16;12.20;99.90
56240;DHT22;42154;51.992;5.896;2022-10-16T06:13:42;12.20;99.90
56240;DHT22;42154;51.992;5.896;2022-10-16T06:16:09;12.10;99.90
56240;DHT22;42154;51.992;5.896;2022-10-16T06:18:35;12.20;99.90
56240;DHT22;42154;51.992;5.896;2022-10-16T06:21:08;12.20;99.90
56240;DHT22;42154;51.992;5.896;2022-10-16T06:23:34;12.20;99.90
56240;DHT22;42154;51.992;5.896;2022-10-16T06:26:11;12.20;99.90
56240;DHT22;42154;51.992;5.896;2022-10-16T06:28:37;12.30;99.90
56240;DHT22;42154;51.992;5.896;2022-10-16T06:31:04;12.30;99.90
56240;DHT22;42154;51.992;5.896;2022-10-16T06:33:30;12.40;99.90
56240;DHT22;42154;51.992;5.896;2022-10-16T06:36:04;12.50;99.90
56240;DHT22;42154;51.992;5.896;2022-10-16T06:38:31;12.50;99.90
56240;DHT22;42154;51.992;5.896;2022-10-16T06:40:57;12.50;99.90
56240;DHT22;42154;51.992;5.896;2022-10-16T06:43:23;12.60;99.90
56240;DHT22;42154;51.992;5.896;2022-10-16T06:45:56;12.60;99.90
56240;DHT22;42154;51.992;5.896;2022-10-16T06:48:23;12.70;99.90
56240;DHT22;42154;51.992;5.896;2022-10-16T06:51:00;12.80;99.90
56240;DHT22;42154;51.992;5.896;2022-10-16T06:53:28;12.80;99.90
56240;DHT22;42154;51.992;5.896;2022-10-16T06:55:55;12.90;99.90
56240;DHT22;42154;51.992;5.896;2022-10-16T06:58:21;12.90;99.90
56240;DHT22;42154;51.992;5.896;2022-10-16T07:00:47;13.00;99.90
56240;DHT22;42154;51.992;5.896;2022-10-16T07:03:13;13.00;99.90
56240;DHT22;42154;51.992;5.896;2022-10-16T07:05:40;13.00;99.90
56240;DHT22;42154;51.992;5.896;2022-10-16T07:08:07;13.10;99.90
56240;DHT22;42154;51.992;5.896;2022-10-16T07:10:33;13.10;99.90
56240;DHT22;42154;51.992;5.896;2022-10-16T07:12:59;13.20;99.90
56240;DHT22;42154;51.992;5.896;2022-10-16T07:15:25;13.20;99.90
56240;DHT22;42154;51.992;5.896;2022-10-16T07:17:51;13.20;99.90
56240;DHT22;42154;51.992;5.896;2022-10-16T07:20:18;13.30;99.90
56240;DHT22;42154;51.992;5.896;2022-10-16T07:22:43;13.30;99.90
56240;DHT22;42154;51.992;5.896;2022-10-16T07:25:09;13.30;99.90
56240;DHT22;42154;51.992;5.896;2022-10-16T07:27:35;13.40;99.90
56240;DHT22;42154;51.992;5.896;2022-10-16T07:30:01;13.40;99.90
56240;DHT22;42154;51.992;5.896;2022-10-16T07:32:27;13.40;99.90
56240;DHT22;42154;51.992;5.896;2022-10-16T07:34:53;13.50;99.90
56240;DHT22;42154;51.992;5.896;2022-10-16T07:37:18;13.50;99.90
56240;DHT22;42154;51.992;5.896;2022-10-16T07:39:44;13.60;99.90
56240;DHT22;42154;51.992;5.896;2022-10-16T07:42:10;13.70;99.90
56240;DHT22;42154;51.992;5.896;2022-10-16T07:44:36;13.80;99.90
56240;DHT22;42154;51.992;5.896;2022-10-16T07:47:01;13.80;99.90
56240;DHT22;42154;51.992;5.896;2022-10-16T07:49:28;13.80;99.90
56240;DHT22;42154;51.992;5.896;2022-10-16T07:51:54;13.90;99.90
56240;DHT22;42154;51.992;5.896;2022-10-16T07:54:19;13.90;99.90
56240;DHT22;42154;51.992;5.896;2022-10-16T07:56:45;13.90;99.90
56240;DHT22;42154;51.992;5.896;2022-10-16T07:59:11;14.10;99.90
56240;DHT22;42154;51.992;5.896;2022-10-16T08:01:37;14.10;99.90
56240;DHT22;42154;51.992;5.896;2022-10-16T08:04:03;14.20;99.90
56240;DHT22;42154;51.992;5.896;2022-10-16T08:06:29;14.30;99.90
56240;DHT22;42154;51.992;5.896;2022-10-16T08:08:55;14.40;99.90
56240;DHT22;42154;51.992;5.896;2022-10-16T08:11:21;14.50;99.90
56240;DHT22;42154;51.992;5.896;2022-10-16T08:13:48;14.60;99.90
56240;DHT22;42154;51.992;5.896;2022-10-16T08:16:14;14.70;99.90
56240;DHT22;42154;51.992;5.896;2022-10-16T08:18:40;14.80;99.90
56240;DHT22;42154;51.992;5.896;2022-10-16T08:21:08;14.90;99.90
56240;DHT22;42154;51.992;5.896;2022-10-16T08:23:37;15.00;99.90
56240;DHT22;42154;51.992;5.896;2022-10-16T08:26:05;15.20;99.90
56240;DHT22;42154;51.992;5.896;2022-10-16T08:28:32;15.30;99.90
56240;DHT22;42154;51.992;5.896;2022-10-16T08:31:05;15.30;99.90
56240;DHT22;42154;51.992;5.896;2022-10-16T08:33:31;15.20;99.90
56240;DHT22;42154;51.992;5.896;2022-10-16T08:35:57;15.10;99.90
56240;DHT22;42154;51.992;5.896;2022-10-16T08:38:23;15.20;99.90
56240;DHT22;42154;51.992;5.896;2022-10-16T08:40:48;15.10;99.90
56240;DHT22;42154;51.992;5.896;2022-10-16T08:43:28;15.10;99.90
56240;DHT22;42154;51.992;5.896;2022-10-16T08:46:22;15.10;99.90
56240;DHT22;42154;51.992;5.896;2022-10-16T08:48:53;15.10;99.90
56240;DHT22;42154;51.992;5.896;2022-10-16T08:51:40;15.10;99.90
56240;DHT22;42154;51.992;5.896;2022-10-16T08:54:29;15.10;99.90
56240;DHT22;42154;51.992;5.896;2022-10-16T08:56:57;15.10;99.90
56240;DHT22;42154;51.992;5.896;2022-10-16T08:59:26;15.10;99.90
56240;DHT22;42154;51.992;5.896;2022-10-16T09:01:52;15.00;99.90
56240;DHT22;42154;51.992;5.896;2022-10-16T09:23:37;15.20;99.90
56240;DHT22;42154;51.992;5.896;2022-10-16T09:26:03;15.30;99.90
56240;DHT22;42154;51.992;5.896;2022-10-16T09:28:30;15.30;99.90
56240;DHT22;42154;51.992;5.896;2022-10-16T09:30:56;15.40;99.90
56240;DHT22;42154;51.992;5.896;2022-10-16T09:33:27;15.40;99.90
56240;DHT22;42154;51.992;5.896;2022-10-16T09:35:56;15.50;99.90
56240;DHT22;42154;51.992;5.896;2022-10-16T09:38:28;15.50;99.90
56240;DHT22;42154;51.992;5.896;2022-10-16T09:40:55;15.60;99.90
56240;DHT22;42154;51.992;5.896;2022-10-16T09:43:25;15.50;99.90
56240;DHT22;42154;51.992;5.896;2022-10-16T09:45:58;15.60;99.90
56240;DHT22;42154;51.992;5.896;2022-10-16T09:48:48;15.60;99.90
56240;DHT22;42154;51.992;5.896;2022-10-16T09:53:53;15.70;99.90
56240;DHT22;42154;51.992;5.896;2022-10-16T09:56:38;15.70;99.90
56240;DHT22;42154;51.992;5.896;2022-10-16T09:59:15;15.70;99.90
56240;DHT22;42154;51.992;5.896;2022-10-16T10:04:09;15.80;99.90
56240;DHT22;42154;51.992;5.896;2022-10-16T10:06:40;15.90;99.90
56240;DHT22;42154;51.992;5.896;2022-10-16T10:09:25;15.90;99.90
56240;DHT22;42154;51.992;5.896;2022-10-16T10:11:56;16.00;99.90
56240;DHT22;42154;51.992;5.896;2022-10-16T10:14:38;16.10;99.90
56240;DHT22;42154;51.992;5.896;2022-10-16T10:19:46;16.20;99.90
56240;DHT22;42154;51.992;5.896;2022-10-16T10:22:26;16.20;99.90
56240;DHT22;42154;51.992;5.896;2022-10-16T10:25:38;16.30;99.90
56240;DHT22;42154;51.992;5.896;2022-10-16T10:33:18;16.50;99.90
56240;DHT22;42154;51.992;5.896;2022-10-16T10:41:20;16.80;99.90
56240;DHT22;42154;51.992;5.896;2022-10-16T10:55:20;17.30;99.90
56240;DHT22;42154;51.992;5.896;2022-10-16T11:00:56;17.60;99.90
56240;DHT22;42154;51.992;5.896;2022-10-16T11:06:28;17.80;99.90
56240;DHT22;42154;51.992;5.896;2022-10-16T11:09:02;17.90;99.90
56240;DHT22;42154;51.992;5.896;2022-10-16T11:11:38;17.90;99.90
56240;DHT22;42154;51.992;5.896;2022-10-16T11:14:16;18.00;99.90
56240;DHT22;42154;51.992;5.896;2022-10-16T11:16:58;18.10;99.70
56240;DHT22;42154;51.992;5.896;2022-10-16T11:19:54;18.10;99.40
56240;DHT22;42154;51.992;5.896;2022-10-16T11:22:30;18.00;98.80
56240;DHT22;42154;51.992;5.896;2022-10-16T11:30:08;17.80;98.60
56240;DHT22;42154;51.992;5.896;2022-10-16T11:35:44;17.90;98.40
56240;DHT22;42154;51.992;5.896;2022-10-16T11:38:26;17.90;98.30
56240;DHT22;42154;51.992;5.896;2022-10-16T11:40:58;18.00;98.20
56240;DHT22;42154;51.992;5.896;2022-10-16T11:43:49;17.90;98.10
56240;DHT22;42154;51.992;5.896;2022-10-16T11:46:21;18.00;98.20
56240;DHT22;42154;51.992;5.896;2022-10-16T11:49:08;18.10;98.00
56240;DHT22;42154;51.992;5.896;2022-10-16T11:54:54;18.30;97.80
56240;DHT22;42154;51.992;5.896;2022-10-16T11:57:24;18.30;97.50
56240;DHT22;42154;51.992;5.896;2022-10-16T11:59:53;18.20;97.50
56240;DHT22;42154;51.992;5.896;2022-10-16T12:02:52;18.20;97.50
56240;DHT22;42154;51.992;5.896;2022-10-16T12:08:06;18.40;97.30
56240;DHT22;42154;51.992;5.896;2022-10-16T12:10:35;18.50;96.80
56240;DHT22;42154;51.992;5.896;2022-10-16T12:13:28;18.60;96.50
56240;DHT22;42154;51.992;5.896;2022-10-16T12:16:19;18.60;96.50
56240;DHT22;42154;51.992;5.896;2022-10-16T12:18:46;18.70;96.10
56240;DHT22;42154;51.992;5.896;2022-10-16T12:21:14;18.60;96.30
56240;DHT22;42154;51.992;5.896;2022-10-16T12:23:49;18.60;96.10
56240;DHT22;42154;51.992;5.896;2022-10-16T12:26:24;18.60;95.90
56240;DHT22;42154;51.992;5.896;2022-10-16T12:28:51;18.60;96.00
56240;DHT22;42154;51.992;5.896;2022-10-16T12:31:17;18.50;96.00
56240;DHT22;42154;51.992;5.896;2022-10-16T12:34:02;18.40;95.80
56240;DHT22;42154;51.992;5.896;2022-10-16T12:36:35;18.50;96.10
56240;DHT22;42154;51.992;5.896;2022-10-16T12:39:01;18.40;96.20
56240;DHT22;42154;51.992;5.896;2022-10-16T12:43:55;18.50;96.30
56240;DHT22;42154;51.992;5.896;2022-10-16T12:46:38;18.50;96.50
56240;DHT22;42154;51.992;5.896;2022-10-16T12:49:22;18.50;96.40
56240;DHT22;42154;51.992;5.896;2022-10-16T12:51:49;18.60;95.50
56240;DHT22;42154;51.992;5.896;2022-10-16T13:02:55;18.60;95.70
56240;DHT22;42154;51.992;5.896;2022-10-16T13:08:43;18.70;95.80
56240;DHT22;42154;51.992;5.896;2022-10-16T13:17:25;18.80;95.90
56240;DHT22;42154;51.992;5.896;2022-10-16T13:22:46;18.90;95.60
56240;DHT22;42154;51.992;5.896;2022-10-16T13:27:48;18.90;95.20
56240;DHT22;42154;51.992;5.896;2022-10-16T13:30:18;19.00;95.40
56240;DHT22;42154;51.992;5.896;2022-10-16T13:32:47;19.00;95.20
56240;DHT22;42154;51.992;5.896;2022-10-16T13:35:20;19.00;95.40
56240;DHT22;42154;51.992;5.896;2022-10-16T13:37:47;19.00;95.20
56240;DHT22;42154;51.992;5.896;2022-10-16T13:40:24;18.90;94.80
56240;DHT22;42154;51.992;5.896;2022-10-16T13:42:53;18.90;94.90
56240;DHT22;42154;51.992;5.896;2022-10-16T13:45:20;18.80;95.20
56240;DHT22;42154;51.992;5.896;2022-10-16T13:47:46;18.80;95.30
56240;DHT22;42154;51.992;5.896;2022-10-16T13:50:16;18.80;95.40
56240;DHT22;42154;51.992;5.896;2022-10-16T13:52:42;18.80;95.50
56240;DHT22;42154;51.992;5.896;2022-10-16T13:55:16;18.80;95.30
56240;DHT22;42154;51.992;5.896;2022-10-16T13:57:42;18.80;95.30
56240;DHT22;42154;51.992;5.896;2022-10-16T14:00:26;18.90;95.40
56240;DHT22;42154;51.992;5.896;2022-10-16T14:03:04;19.00;95.30
56240;DHT22;42154;51.992;5.896;2022-10-16T14:05:31;19.10;95.20
56240;DHT22;42154;51.992;5.896;2022-10-16T14:07:58;19.10;95.10
56240;DHT22;42154;51.992;5.896;2022-10-16T14:10:29;19.10;95.20
56240;DHT22;42154;51.992;5.896;2022-10-16T14:12:58;19.20;95.30
56240;DHT22;42154;51.992;5.896;2022-10-16T14:15:24;19.10;95.20
56240;DHT22;42154;51.992;5.896;2022-10-16T14:17:51;19.10;95.40
56240;DHT22;42154;51.992;5.896;2022-10-16T14:20:19;19.10;95.40
56240;DHT22;42154;51.992;5.896;2022-10-16T14:22:46;19.10;95.10
56240;DHT22;42154;51.992;5.896;2022-10-16T14:25:23;19.00;95.20
56240;DHT22;42154;51.992;5.896;2022-10-16T14:30:30;19.10;95.20
56240;DHT22;42154;51.992;5.896;2022-10-16T14:32:59;19.00;95.00
56240;DHT22;42154;51.992;5.896;2022-10-16T14:35:37;19.00;94.90
56240;DHT22;42154;51.992;5.896;2022-10-16T14:38:05;19.10;95.00
56240;DHT22;42154;51.992;5.896;2022-10-16T14:40:33;19.10;95.10
56240;DHT22;42154;51.992;5.896;2022-10-16T14:43:04;19.10;95.10
56240;DHT22;42154;51.992;5.896;2022-10-16T14:45:33;19.10;95.10
56240;DHT22;42154;51.992;5.896;2022-10-16T14:48:06;19.10;95.20
56240;DHT22;42154;51.992;5.896;2022-10-16T14:50:40;19.10;95.10
56240;DHT22;42154;51.992;5.896;2022-10-16T14:53:11;19.10;95.30
56240;DHT22;42154;51.992;5.896;2022-10-16T14:55:38;19.00;95.30
56240;DHT22;42154;51.992;5.896;2022-10-16T14:58:04;18.90;95.30
56240;DHT22;42154;51.992;5.896;2022-10-16T15:00:30;18.80;95.30
56240;DHT22;42154;51.992;5.896;2022-10-16T15:02:56;18.80;95.50
56240;DHT22;42154;51.992;5.896;2022-10-16T15:05:24;18.70;95.60
56240;DHT22;42154;51.992;5.896;2022-10-16T15:07:52;18.70;95.70
56240;DHT22;42154;51.992;5.896;2022-10-16T15:10:20;18.70;95.80
56240;DHT22;42154;51.992;5.896;2022-10-16T15:12:46;18.70;95.80
56240;DHT22;42154;51.992;5.896;2022-10-16T15:15:35;18.70;96.00
56240;DHT22;42154;51.992;5.896;2022-10-16T15:18:02;18.80;96.10
56240;DHT22;42154;51.992;5.896;2022-10-16T15:20:33;18.70;96.30
56240;DHT22;42154;51.992;5.896;2022-10-16T15:23:20;18.70;96.50
56240;DHT22;42154;51.992;5.896;2022-10-16T15:25:54;18.70;96.60
56240;DHT22;42154;51.992;5.896;2022-10-16T15:28:21;18.60;97.00
56240;DHT22;42154;51.992;5.896;2022-10-16T15:30:53;18.50;97.50
56240;DHT22;42154;51.992;5.896;2022-10-16T15:33:24;18.40;97.80
56240;DHT22;42154;51.992;5.896;2022-10-16T15:35:52;18.30;98.10
56240;DHT22;42154;51.992;5.896;2022-10-16T15:38:20;18.20;98.40
56240;DHT22;42154;51.992;5.896;2022-10-16T15:40:47;18.10;98.70
56240;DHT22;42154;51.992;5.896;2022-10-16T15:43:13;17.90;99.10
56240;DHT22;42154;51.992;5.896;2022-10-16T15:45:39;17.80;99.50
56240;DHT22;42154;51.992;5.896;2022-10-16T15:48:05;17.70;99.80
56240;DHT22;42154;51.992;5.896;2022-10-16T15:50:31;17.70;99.90
56240;DHT22;42154;51.992;5.896;2022-10-16T15:52:57;17.60;99.90
56240;DHT22;42154;51.992;5.896;2022-10-16T15:55:23;17.60;99.90
56240;DHT22;42154;51.992;5.896;2022-10-16T15:57:49;17.60;99.90
56240;DHT22;42154;51.992;5.896;2022-10-16T16:00:18;17.60;99.90
56240;DHT22;42154;51.992;5.896;2022-10-16T16:02:51;17.50;99.90
56240;DHT22;42154;51.992;5.896;2022-10-16T16:05:17;17.50;99.90
56240;DHT22;42154;51.992;5.896;2022-10-16T16:07:43;17.40;99.90
56240;DHT22;42154;51.992;5.896;2022-10-16T16:10:10;17.30;99.90
56240;DHT22;42154;51.992;5.896;2022-10-16T16:12:36;17.20;99.90
56240;DHT22;42154;51.992;5.896;2022-10-16T16:15:04;17.10;99.90
56240;DHT22;42154;51.992;5.896;2022-10-16T16:17:32;17.10;99.90
56240;DHT22;42154;51.992;5.896;2022-10-16T16:19:58;17.00;99.90
56240;DHT22;42154;51.992;5.896;2022-10-16T16:22:23;17.00;99.90
56240;DHT22;42154;51.992;5.896;2022-10-16T16:24:49;17.00;99.90
56240;DHT22;42154;51.992;5.896;2022-10-16T16:27:15;17.00;99.90
56240;DHT22;42154;51.992;5.896;2022-10-16T16:29:41;16.90;99.90
56240;DHT22;42154;51.992;5.896;2022-10-16T16:32:07;16.80;99.90
56240;DHT22;42154;51.992;5.896;2022-10-16T16:34:33;16.70;99.90
56240;DHT22;42154;51.992;5.896;2022-10-16T16:36:58;16.60;99.90
56240;DHT22;42154;51.992;5.896;2022-10-16T16:39:24;16.60;99.90
56240;DHT22;42154;51.992;5.896;2022-10-16T16:41:50;16.60;99.90
56240;DHT22;42154;51.992;5.896;2022-10-16T16:44:16;16.60;99.90
56240;DHT22;42154;51.992;5.896;2022-10-16T16:46:43;16.60;99.90
56240;DHT22;42154;51.992;5.896;2022-10-16T16:49:11;16.60;99.90
56240;DHT22;42154;51.992;5.896;2022-10-16T16:51:38;16.60;99.90
56240;DHT22;42154;51.992;5.896;2022-10-16T16:54:04;16.50;99.90
56240;DHT22;42154;51.992;5.896;2022-10-16T16:56:30;16.50;99.90
56240;DHT22;42154;51.992;5.896;2022-10-16T16:58:57;16.40;99.90
56240;DHT22;42154;51.992;5.896;2022-10-16T17:01:25;16.40;99.90
56240;DHT22;42154;51.992;5.896;2022-10-16T17:03:53;16.40;99.90
56240;DHT22;42154;51.992;5.896;2022-10-16T17:06:21;16.30;99.90
56240;DHT22;42154;51.992;5.896;2022-10-16T17:08:48;16.30;99.90
56240;DHT22;42154;51.992;5.896;2022-10-16T17:11:26;16.30;99.90
56240;DHT22;42154;51.992;5.896;2022-10-16T17:13:54;16.30;99.90
56240;DHT22;42154;51.992;5.896;2022-10-16T17:16:23;16.20;99.90
56240;DHT22;42154;51.992;5.896;2022-10-16T17:18:49;16.10;99.90
56240;DHT22;42154;51.992;5.896;2022-10-16T17:21:15;16.10;99.90
56240;DHT22;42154;51.992;5.896;2022-10-16T17:23:41;16.10;99.90
56240;DHT22;42154;51.992;5.896;2022-10-16T17:26:12;16.10;99.90
56240;DHT22;42154;51.992;5.896;2022-10-16T17:28:39;16.00;99.90
56240;DHT22;42154;51.992;5.896;2022-10-16T17:31:19;16.00;99.90
56240;DHT22;42154;51.992;5.896;2022-10-16T17:33:46;15.90;99.90
56240;DHT22;42154;51.992;5.896;2022-10-16T17:36:12;15.90;99.90
56240;DHT22;42154;51.992;5.896;2022-10-16T17:38:41;15.90;99.90
56240;DHT22;42154;51.992;5.896;2022-10-16T17:43:41;15.90;99.90